Time;durP1;ratioP1;P1;durP2;ratioP2;P2;SDS_P1;SDS_P2;PMS_P1;PMS_P2;Temp;Humidity;BMP_temperature;BMP_pressure;BME280_temperature;BME280_humidity;BME280_pressure;Samples;Min_cycle;Max_cycle;Signal;HPM_P1;HPM_P2
2022/01/21 00:01:03;;;;;;;7.05;1.80;;;;;;;-1.38;76.22;100422.19;4972685;28;20093;-76
2022/01/21 00:03:29;;;;;;;12.00;2.40;;;;;;;-1.43;76.30;100430.19;4973364;28;20431;-77
2022/01/21 00:05:54;;;;;;;6.93;1.80;;;;;;;-1.50;75.73;100430.94;4974732;28;20511;-77
2022/01/21 00:08:20;;;;;;;6.07;2.08;;;;;;;-1.56;76.36;100432.53;4973681;28;20027;-77
2022/01/21 00:10:45;;;;;;;6.38;1.95;;;;;;;-1.63;76.96;100415.75;4974971;28;20062;-77
2022/01/21 00:13:53;;;;;;;8.82;1.88;;;;;;;-1.64;76.16;100433.69;4974103;28;20133;-76
2022/01/21 00:16:13;;;;;;;10.77;3.15;;;;;;;-1.69;76.40;100430.47;4972190;28;20030;-77
2022/01/21 00:18:40;;;;;;;7.93;2.35;;;;;;;-1.77;76.90;100444.41;4989891;28;20023;-77
2022/01/21 00:32:04;;;;;;;6.10;2.63;;;;;;;-1.99;77.05;100458.66;4974787;28;20077;-77
2022/01/21 00:34:29;;;;;;;4.07;1.42;;;;;;;-2.14;76.92;100435.44;4974727;28;20022;-76
2022/01/21 00:36:55;;;;;;;7.93;2.50;;;;;;;-2.01;76.74;100455.44;4974827;28;20037;-77
2022/01/21 00:39:24;;;;;;;9.43;2.03;;;;;;;-2.02;76.73;100465.03;4975062;28;20041;-77
2022/01/21 00:44:38;;;;;;;3.50;1.98;;;;;;;-2.04;76.84;100465.41;4973135;28;20034;-76
2022/01/21 00:47:04;;;;;;;7.38;2.25;;;;;;;-2.17;76.32;100462.13;4974988;28;20474;-76
2022/01/21 00:49:30;;;;;;;5.90;1.88;;;;;;;-2.16;77.06;100465.72;4975340;28;20027;-77
2022/01/21 00:51:55;;;;;;;6.45;1.98;;;;;;;-2.21;76.96;100471.66;4957305;28;20034;-76
2022/01/21 00:54:21;;;;;;;4.65;1.80;;;;;;;-2.23;77.70;100468.47;4974568;28;20456;-76
2022/01/21 00:56:46;;;;;;;2.78;1.67;;;;;;;-2.27;77.61;100468.44;4973110;28;20027;-77
2022/01/21 00:59:11;;;;;;;16.55;3.05;;;;;;;-2.28;77.22;100469.63;4973308;28;20098;-76
2022/01/21 01:01:37;;;;;;;2.05;1.20;;;;;;;-2.29;77.61;100478.38;4988960;28;20130;-76
2022/01/21 01:04:03;;;;;;;4.53;1.80;;;;;;;-2.29;77.12;100475.59;4972107;28;20023;-76
2022/01/21 01:06:28;;;;;;;4.32;1.98;;;;;;;-2.30;76.98;100493.50;4973183;28;20027;-76
2022/01/21 01:08:54;;;;;;;4.32;1.55;;;;;;;-2.34;76.90;100492.69;4955965;28;20023;-76
2022/01/21 01:12:15;;;;;;;3.63;1.48;;;;;;;-2.38;77.87;100492.69;4987683;28;20034;-76
2022/01/21 01:22:34;;;;;;;4.03;2.05;;;;;;;-2.40;77.54;100510.97;4973549;28;20143;-77
2022/01/21 01:27:44;;;;;;;5.82;1.65;;;;;;;-2.44;76.75;100521.28;4974302;28;20045;-76
2022/01/21 01:30:16;;;;;;;5.75;1.45;;;;;;;-2.39;77.72;100513.38;4972807;28;20035;-76
2022/01/21 01:32:43;;;;;;;5.47;2.38;;;;;;;-2.39;77.14;100523.72;4973293;28;20058;-77
2022/01/21 01:35:10;;;;;;;3.85;1.65;;;;;;;-2.45;77.14;100512.13;4974325;28;20118;-76
2022/01/21 01:38:30;;;;;;;5.70;2.15;;;;;;;-2.41;77.13;100526.09;4974363;28;20482;-77
2022/01/21 01:51:22;;;;;;;4.47;1.55;;;;;;;-2.41;76.82;100526.09;4974897;28;20042;-76
2022/01/21 01:53:52;;;;;;;4.93;1.80;;;;;;;-2.47;76.56;100520.09;4977735;28;20034;-77
2022/01/21 01:56:22;;;;;;;2.45;1.33;;;;;;;-2.41;76.77;100526.88;4976107;28;20027;-76
2022/01/21 01:58:48;;;;;;;5.80;1.50;;;;;;;-2.43;76.51;100525.69;4976212;28;20121;-77
2022/01/21 02:01:13;;;;;;;9.13;2.00;;;;;;;-2.42;77.05;100521.72;4976247;28;20441;-77
2022/01/21 02:03:39;;;;;;;8.77;1.40;;;;;;;-2.37;76.75;100529.72;4977227;28;20031;-76
2022/01/21 02:06:04;;;;;;;4.90;1.30;;;;;;;-2.32;76.92;100532.16;4976099;28;20031;-77
2022/01/21 02:08:30;;;;;;;5.22;1.20;;;;;;;-2.35;76.12;100533.72;4976284;28;20037;-76
2022/01/21 02:10:55;;;;;;;6.22;1.73;;;;;;;-2.47;76.29;100530.44;4975868;28;20034;-77
2022/01/21 02:13:28;;;;;;;3.75;1.15;;;;;;;-2.48;76.79;100534.41;4975822;28;20113;-77
2022/01/21 02:15:59;;;;;;;5.47;1.73;;;;;;;-2.40;76.24;100527.69;4976757;28;20077;-77
2022/01/21 02:23:53;;;;;;;2.80;1.38;;;;;;;-2.53;76.98;100537.56;4977219;28;20043;-76
2022/01/21 02:26:18;;;;;;;14.20;1.77;;;;;;;-2.58;77.11;100529.53;4977012;28;20033;-77
2022/01/21 02:28:44;;;;;;;13.50;1.90;;;;;;;-2.48;76.67;100538.00;4977223;28;20061;-77
2022/01/21 02:31:09;;;;;;;11.70;1.90;;;;;;;-2.46;76.75;100526.44;4976658;28;20498;-77
2022/01/21 02:33:34;;;;;;;8.05;1.20;;;;;;;-2.42;75.96;100532.88;4975813;28;20018;-77
2022/01/21 02:36:00;;;;;;;4.90;1.42;;;;;;;-2.50;76.71;100545.13;4976850;28;20034;-77
2022/01/21 02:38:25;;;;;;;4.47;1.70;;;;;;;-2.53;76.63;100548.69;4991615;28;20050;-76
2022/01/21 02:40:50;;;;;;;6.13;1.55;;;;;;;-2.47;76.49;100547.16;4976374;28;20399;-75
2022/01/21 02:43:16;;;;;;;5.50;1.80;;;;;;;-2.50;76.86;100537.56;4976500;28;20066;-76
2022/01/21 02:45:45;;;;;;;2.17;1.50;;;;;;;-2.54;77.29;100538.72;4976526;28;20050;-77
2022/01/21 02:48:11;;;;;;;7.00;2.22;;;;;;;-2.51;76.94;100543.53;4975266;28;20110;-77
2022/01/21 02:50:36;;;;;;;5.32;1.40;;;;;;;-2.46;76.80;100543.97;4975262;28;20122;-77
2022/01/21 02:53:39;;;;;;;3.13;1.38;;;;;;;-2.50;76.91;100545.13;4976867;28;20041;-77
2022/01/21 02:55:53;;;;;;;15.93;2.20;;;;;;;-2.55;77.41;100551.88;4977375;28;20480;-77
2022/01/21 02:58:18;;;;;;;5.93;1.80;;;;;;;-2.50;76.74;100547.91;4976299;28;20058;-77
2022/01/21 03:00:44;;;;;;;6.35;1.83;;;;;;;-2.48;76.95;100562.28;4975120;28;20029;-77
2022/01/21 03:03:09;;;;;;;7.70;2.13;;;;;;;-2.52;76.49;100555.88;4975135;28;20113;-78
2022/01/21 03:05:36;;;;;;;2.78;1.50;;;;;;;-2.53;76.11;100559.84;4976542;28;20026;-78
2022/01/21 03:08:02;;;;;;;10.88;1.83;;;;;;;-2.51;76.47;100549.91;4975066;28;20041;-77
2022/01/21 03:10:28;;;;;;;4.88;1.65;;;;;;;-2.50;76.49;100571.03;4975006;28;20026;-77
2022/01/21 03:12:53;;;;;;;5.78;1.50;;;;;;;-2.52;76.34;100564.25;4975408;28;20027;-77
2022/01/21 03:15:19;;;;;;;4.22;1.52;;;;;;;-2.56;76.46;100564.19;4974889;28;20427;-77
2022/01/21 03:17:44;;;;;;;5.70;1.40;;;;;;;-2.58;76.45;100561.00;4976339;28;20054;-77
2022/01/21 03:20:10;;;;;;;4.35;1.38;;;;;;;-2.53;77.16;100571.81;4990873;28;20022;-76
2022/01/21 03:22:36;;;;;;;3.75;1.83;;;;;;;-2.56;76.79;100568.97;4974692;28;20031;-76
2022/01/21 03:25:07;;;;;;;4.85;1.65;;;;;;;-2.59;77.10;100556.59;4975830;28;20532;-77
2022/01/21 03:27:32;;;;;;;5.60;1.52;;;;;;;-2.52;76.71;100580.97;4974584;28;20117;-77
2022/01/21 03:29:58;;;;;;;5.40;1.55;;;;;;;-2.52;76.80;100580.97;4974660;28;20118;-77
2022/01/21 03:32:25;;;;;;;6.35;1.50;;;;;;;-2.49;76.88;100577.41;4974720;28;20423;-76
2022/01/21 03:34:50;;;;;;;7.68;1.52;;;;;;;-2.51;76.92;100588.13;4975720;28;20670;-76
2022/01/21 03:37:16;;;;;;;10.40;2.05;;;;;;;-2.49;77.47;100585.78;4975697;28;20113;-76
2022/01/21 03:39:41;;;;;;;5.28;1.30;;;;;;;-2.48;77.49;100579.03;4974309;28;20080;-77
2022/01/21 03:42:07;;;;;;;4.97;2.03;;;;;;;-2.38;77.06;100578.31;4974434;28;20431;-77
2022/01/21 03:44:32;;;;;;;7.78;2.10;;;;;;;-2.39;77.22;100571.13;4974393;28;20388;-76
2022/01/21 03:46:57;;;;;;;11.93;2.85;;;;;;;-2.38;76.91;100578.31;4974686;28;20383;-77
2022/01/21 03:49:23;;;;;;;4.93;1.92;;;;;;;-2.34;76.53;100587.50;4974241;28;20096;-77
2022/01/21 03:51:48;;;;;;;6.55;1.48;;;;;;;-2.41;76.73;100582.66;4974076;28;20034;-77
2022/01/21 03:54:14;;;;;;;5.18;1.88;;;;;;;-2.39;76.55;100585.06;4974478;28;20027;-76
2022/01/21 03:56:39;;;;;;;4.53;2.28;;;;;;;-2.44;77.31;100589.00;4974049;28;20427;-77
2022/01/21 03:59:05;;;;;;;6.00;1.50;;;;;;;-2.45;77.23;100590.19;4974071;28;20023;-75
2022/01/21 04:01:31;;;;;;;3.30;1.55;;;;;;;-2.46;76.92;100587.78;4974014;28;20026;-78
2022/01/21 04:03:56;;;;;;;8.60;2.38;;;;;;;-2.48;77.34;100587.38;4975643;28;20037;-77
2022/01/21 04:06:22;;;;;;;6.00;1.77;;;;;;;-2.52;77.55;100590.16;4973886;28;20031;-77
2022/01/21 04:08:47;;;;;;;5.63;2.17;;;;;;;-2.38;77.62;100587.50;4974250;28;20057;-76
2022/01/21 04:11:12;;;;;;;2.45;1.70;;;;;;;-2.28;77.55;100580.41;4973476;28;20030;-77
2022/01/21 04:13:38;;;;;;;6.28;1.52;;;;;;;-2.19;77.40;100564.94;4973896;28;20031;-77
2022/01/21 04:16:04;;;;;;;7.45;1.30;;;;;;;-2.07;77.20;100561.03;4974071;28;20034;-77
2022/01/21 04:18:30;;;;;;;7.95;1.27;;;;;;;-1.91;76.85;100563.53;4957737;28;20034;-76
2022/01/21 04:20:56;;;;;;;4.10;1.60;;;;;;;-1.78;76.15;100562.81;4973744;28;20027;-77
2022/01/21 04:23:22;;;;;;;2.85;1.20;;;;;;;-1.81;75.61;100562.81;4973717;28;20033;-77
2022/01/21 04:25:48;;;;;;;5.40;1.40;;;;;;;-1.84;75.30;100560.81;4973767;28;20038;-77
2022/01/21 04:28:14;;;;;;;5.32;1.50;;;;;;;-1.89;75.51;100564.75;4973718;28;20113;-77
2022/01/21 04:30:39;;;;;;;6.03;1.95;;;;;;;-1.91;75.49;100575.50;4973553;28;20456;-77
2022/01/21 04:33:05;;;;;;;19.48;4.10;;;;;;;-1.83;75.64;100566.00;4973690;28;20467;-77
2022/01/21 04:35:31;;;;;;;7.72;1.38;;;;;;;-1.82;75.17;100564.78;4973509;28;20022;-77
2022/01/21 04:38:00;;;;;;;7.32;1.48;;;;;;;-1.87;75.38;100554.00;4973470;28;20077;-77
2022/01/21 04:40:30;;;;;;;7.20;1.70;;;;;;;-1.79;75.14;100578.00;4973322;28;20050;-77
2022/01/21 04:48:26;;;;;;;7.65;1.65;;;;;;;-1.84;74.98;100572.78;4971608;28;20069;-77
2022/01/21 04:51:10;;;;;;;6.22;1.65;;;;;;;-1.75;74.97;100573.22;4972185;28;20023;-78
2022/01/21 04:53:35;;;;;;;4.07;1.08;;;;;;;-1.75;75.07;100578.00;4974381;28;20030;-76
2022/01/21 04:56:01;;;;;;;4.03;1.23;;;;;;;-1.69;74.61;100584.03;4973217;28;20027;-77
2022/01/21 04:58:26;;;;;;;8.68;2.00;;;;;;;-1.69;74.96;100578.44;4973038;28;20388;-76
2022/01/21 05:00:51;;;;;;;4.78;1.50;;;;;;;-1.55;75.26;100564.56;4973036;28;20033;-77
2022/01/21 05:03:17;;;;;;;4.93;1.40;;;;;;;-1.44;74.70;100559.84;4956909;28;20035;-76
2022/01/21 05:05:43;;;;;;;6.25;1.17;;;;;;;-1.29;74.75;100560.72;4974751;28;20034;-77
2022/01/21 05:08:19;;;;;;;10.90;1.90;;;;;;;-1.35;74.04;100555.50;4973221;28;20386;-77
2022/01/21 05:10:45;;;;;;;4.93;1.88;;;;;;;-1.35;73.50;100552.69;4989307;28;20035;-78
2022/01/21 05:13:10;;;;;;;7.13;2.00;;;;;;;-1.42;73.41;100555.44;4972968;28;20034;-77
2022/01/21 05:16:00;;;;;;;6.90;2.00;;;;;;;-1.43;73.70;100558.66;4973302;28;20392;-77
2022/01/21 05:18:25;;;;;;;5.32;1.90;;;;;;;-1.46;73.87;100565.81;4973419;28;20039;-77
2022/01/21 05:20:51;;;;;;;10.38;2.20;;;;;;;-1.38;73.30;100566.63;4973121;28;20023;-77
2022/01/21 05:23:16;;;;;;;7.78;2.72;;;;;;;-1.56;73.17;100569.34;4967778;28;20042;-76
2022/01/21 05:25:41;;;;;;;8.75;2.05;;;;;;;-1.62;73.67;100562.53;4977538;28;20081;-76
2022/01/21 05:28:07;;;;;;;5.18;1.60;;;;;;;-1.62;74.09;100562.53;4977150;28;20089;-78
2022/01/21 05:30:33;;;;;;;2.83;1.10;;;;;;;-1.65;73.81;100556.94;4973556;28;20102;-77
2022/01/21 05:32:59;;;;;;;4.07;1.63;;;;;;;-1.74;74.12;100568.44;4977015;28;20031;-77
2022/01/21 05:35:24;;;;;;;5.78;2.17;;;;;;;-1.88;73.93;100548.81;4977718;28;20166;-77
2022/01/21 05:37:50;;;;;;;5.90;1.20;;;;;;;-1.66;74.48;100566.47;4992568;28;20460;-79
2022/01/21 05:40:17;;;;;;;3.40;2.10;;;;;;;-1.57;73.87;100566.94;4975967;28;20054;-78
2022/01/21 05:42:42;;;;;;;3.90;2.05;;;;;;;-1.74;73.26;100574.03;4977779;28;20396;-79
2022/01/21 05:47:33;;;;;;;3.97;1.20;;;;;;;-1.94;73.87;100559.53;4977715;28;20034;-78
2022/01/21 05:49:59;;;;;;;8.57;1.88;;;;;;;-1.86;74.07;100579.91;4978271;28;20034;-79
2022/01/21 05:52:34;;;;;;;12.57;2.05;;;;;;;-1.86;74.33;100575.13;4977730;28;20031;-78
2022/01/21 05:55:00;;;;;;;7.32;1.70;;;;;;;-1.87;74.38;100579.09;4975849;28;20459;-78
2022/01/21 05:57:25;;;;;;;8.02;2.28;;;;;;;-1.83;74.70;100574.38;4976900;28;20077;-78
2022/01/21 05:59:50;;;;;;;4.78;2.20;;;;;;;-1.76;74.64;100584.78;4977029;28;20027;-79
2022/01/21 06:02:16;;;;;;;3.90;1.60;;;;;;;-1.62;74.66;100590.44;4975891;28;20085;-80
2022/01/21 06:04:44;;;;;;;4.35;1.60;;;;;;;-1.61;74.31;100577.28;4959734;28;20034;-77
2022/01/21 06:07:10;;;;;;;8.80;2.25;;;;;;;-1.70;74.12;100586.00;4992206;28;20057;-79
2022/01/21 06:09:37;;;;;;;2.40;1.35;;;;;;;-1.71;74.26;100587.19;4959815;28;20062;-78
2022/01/21 06:12:02;;;;;;;4.32;1.60;;;;;;;-1.77;73.83;100594.31;4975450;28;20026;-79
2022/01/21 06:14:28;;;;;;;8.27;1.90;;;;;;;-2.00;74.00;100549.13;4991761;28;20361;-78
2022/01/21 06:16:53;;;;;;;6.13;1.88;;;;;;;-1.76;74.22;100593.16;4977067;28;20034;-79
2022/01/21 06:19:19;;;;;;;6.70;2.72;;;;;;;-1.78;74.27;100587.94;4976799;28;20460;-79
2022/01/21 06:21:44;;;;;;;9.65;2.30;;;;;;;-1.79;74.32;100593.94;4976934;28;20035;-79
2022/01/21 06:24:09;;;;;;;3.63;1.83;;;;;;;-1.76;74.28;100591.16;4975740;28;20039;-79
2022/01/21 06:26:36;;;;;;;9.43;2.40;;;;;;;-1.75;74.44;100592.75;4976988;28;20041;-80
2022/01/21 06:29:02;;;;;;;10.93;2.28;;;;;;;-1.73;73.72;100597.16;4976818;28;20077;-79
2022/01/21 06:31:27;;;;;;;6.13;2.05;;;;;;;-1.77;74.25;100599.91;4975611;28;20117;-79
2022/01/21 06:33:53;;;;;;;13.93;1.75;;;;;;;-1.72;74.36;100602.34;4976808;28;20035;-79
2022/01/21 06:36:19;;;;;;;7.05;2.45;;;;;;;-1.70;73.62;100604.75;4976520;28;20054;-78
2022/01/21 06:38:44;;;;;;;9.63;2.22;;;;;;;-1.68;73.98;100603.19;4976013;28;20038;-79
2022/01/21 06:41:09;;;;;;;13.23;2.95;;;;;;;-1.62;73.96;100596.03;4976384;28;20061;-78
2022/01/21 06:43:35;;;;;;;10.93;2.85;;;;;;;-1.51;73.71;100608.06;4976430;28;20105;-79
2022/01/21 06:46:00;;;;;;;9.48;2.05;;;;;;;-1.40;72.94;100605.34;4976392;28;20031;-79
2022/01/21 06:48:25;;;;;;;10.85;2.97;;;;;;;-1.30;72.86;100585.03;4976550;28;20428;-80
2022/01/21 06:50:51;;;;;;;4.30;2.05;;;;;;;-1.14;73.16;100598.69;4975215;28;20023;-81
2022/01/21 06:53:16;;;;;;;13.93;2.08;;;;;;;-1.14;71.99;100607.06;4975138;28;20046;-80
2022/01/21 06:55:42;;;;;;;11.10;2.60;;;;;;;-1.00;72.39;100610.72;4975141;28;20110;-78
2022/01/21 06:58:07;;;;;;;8.95;2.08;;;;;;;-0.93;71.82;100605.16;4975800;28;20391;-74
2022/01/21 07:00:33;;;;;;;8.85;2.33;;;;;;;-0.74;71.90;100601.22;4975236;28;20498;-76
2022/01/21 07:02:58;;;;;;;6.85;1.63;;;;;;;-0.61;70.96;100627.63;4975344;28;20464;-80
2022/01/21 07:05:25;;;;;;;6.65;2.03;;;;;;;-0.57;70.51;100625.66;4976230;28;20030;-79
2022/01/21 07:07:51;;;;;;;6.28;1.90;;;;;;;-0.49;70.13;100634.84;4974729;28;20038;-80
2022/01/21 07:10:17;;;;;;;7.40;2.38;;;;;;;-0.44;70.06;100643.66;4975126;28;20027;-83
2022/01/21 07:12:44;;;;;;;5.80;2.10;;;;;;;-0.37;69.87;100642.06;4974910;28;20027;-79
2022/01/21 07:15:11;;;;;;;15.63;2.22;;;;;;;-0.38;69.45;100632.06;4974510;28;20076;-82
2022/01/21 07:17:37;;;;;;;4.50;1.80;;;;;;;-0.39;69.06;100639.66;4974331;28;20053;-84
2022/01/21 07:20:04;;;;;;;10.55;2.10;;;;;;;-0.36;68.00;100654.88;4974376;28;20051;-81
2022/01/21 07:22:31;;;;;;;5.43;1.80;;;;;;;-0.45;68.52;100658.88;4976059;28;20030;-82
2022/01/21 07:24:56;;;;;;;6.30;2.00;;;;;;;-0.50;68.47;100669.63;4974609;28;20041;-75
2022/01/21 07:27:22;;;;;;;10.98;3.28;;;;;;;-0.67;68.26;100651.59;4973316;28;20121;-77
2022/01/21 07:29:47;;;;;;;8.20;2.00;;;;;;;-0.68;68.89;100657.56;4957330;28;20546;-76
2022/01/21 07:32:12;;;;;;;10.82;2.00;;;;;;;-0.93;68.70;100630.31;5046291;22;20062;-77
2022/01/21 07:34:38;;;;;;;7.15;2.40;;;;;;;-0.67;68.65;100661.97;4992569;28;20113;-76
2022/01/21 07:37:03;;;;;;;5.63;2.15;;;;;;;-0.76;68.43;100650.34;4992668;28;20543;-77
2022/01/21 07:39:29;;;;;;;6.57;2.10;;;;;;;-0.65;68.09;100663.19;4992298;28;20030;-78
2022/01/21 07:41:55;;;;;;;16.63;2.30;;;;;;;-0.70;68.45;100662.75;4990260;28;20034;-77
2022/01/21 07:44:20;;;;;;;9.43;2.47;;;;;;;-0.65;67.79;100665.97;4992621;28;20022;-76
2022/01/21 07:46:46;;;;;;;8.88;2.67;;;;;;;-0.85;68.22;100625.56;4991713;28;20029;-77
2022/01/21 07:49:12;;;;;;;9.90;3.15;;;;;;;-0.52;66.46;100672.00;4991165;28;20030;-77
2022/01/21 07:51:37;;;;;;;5.13;2.53;;;;;;;-0.72;67.39;100639.97;4988972;28;20776;-77
2022/01/21 07:54:03;;;;;;;6.35;2.75;;;;;;;-0.49;67.16;100668.41;4990805;28;20463;-78
2022/01/21 07:56:29;;;;;;;7.82;2.38;;;;;;;-0.57;66.63;100680.78;4992713;28;20019;-77
2022/01/21 07:58:54;;;;;;;6.47;2.10;;;;;;;-0.50;67.08;100667.63;4992119;28;20040;-79
2022/01/21 08:01:19;;;;;;;5.80;2.25;;;;;;;-0.37;66.95;100682.03;4991552;28;20529;-78
2022/01/21 08:03:45;;;;;;;5.65;2.35;;;;;;;-0.40;66.41;100674.47;4993940;28;20077;-79
2022/01/21 08:06:12;;;;;;;7.57;2.25;;;;;;;-0.47;66.23;100674.44;4993272;28;20042;-78
2022/01/21 08:08:37;;;;;;;10.40;4.30;;;;;;;-0.35;65.83;100678.88;4994236;28;20027;-78
2022/01/21 08:11:02;;;;;;;5.90;2.22;;;;;;;-0.37;66.27;100653.25;4993017;28;20025;-76
2022/01/21 08:13:28;;;;;;;7.97;3.50;;;;;;;-0.18;65.81;100689.28;4992644;28;20022;-75
2022/01/21 08:15:54;;;;;;;10.77;2.85;;;;;;;-0.28;65.51;100671.28;4993880;28;20032;-77
2022/01/21 08:18:20;;;;;;;15.45;2.60;;;;;;;-0.10;65.77;100693.72;4976491;28;20085;-75
2022/01/21 08:20:45;;;;;;;8.55;2.42;;;;;;;-0.12;65.88;100674.50;4993796;28;20357;-76
2022/01/21 08:23:11;;;;;;;5.80;2.65;;;;;;;0.40;64.77;100691.72;4993890;28;20033;-77
2022/01/21 08:25:37;;;;;;;8.88;2.10;;;;;;;1.52;63.23;100687.06;4993816;28;20018;-77
2022/01/21 08:28:02;;;;;;;9.38;2.35;;;;;;;2.98;58.14;100667.06;4991978;28;20464;-77
2022/01/21 08:30:28;;;;;;;13.23;3.63;;;;;;;4.47;53.79;100676.28;4993730;28;20147;-75
2022/01/21 08:32:53;;;;;;;6.47;2.42;;;;;;;5.03;50.11;100669.59;4991771;28;20050;-74
2022/01/21 08:35:18;;;;;;;6.85;2.72;;;;;;;4.67;50.25;100686.41;4993869;28;20149;-77
2022/01/21 08:37:44;;;;;;;3.80;2.25;;;;;;;4.47;51.73;100677.09;4992740;28;20487;-76
2022/01/21 08:40:09;;;;;;;11.48;2.80;;;;;;;4.92;52.57;100691.59;4993636;28;20022;-76
2022/01/21 08:42:35;;;;;;;8.85;2.40;;;;;;;4.92;51.55;100688.00;4993935;28;20420;-76
2022/01/21 08:45:00;;;;;;;9.18;3.85;;;;;;;4.42;52.51;100704.97;4993649;28;20030;-76
2022/01/21 08:47:26;;;;;;;6.72;2.13;;;;;;;3.87;53.49;100706.97;4993592;28;20026;-76
2022/01/21 08:49:52;;;;;;;8.55;2.70;;;;;;;3.39;54.84;100707.22;4993527;28;20050;-77
2022/01/21 08:52:20;;;;;;;12.50;2.53;;;;;;;2.96;56.81;100709.66;4992964;28;20498;-78
2022/01/21 08:54:47;;;;;;;11.73;3.22;;;;;;;2.77;58.13;100724.31;4993537;28;20018;-76
2022/01/21 08:57:12;;;;;;;10.95;3.00;;;;;;;2.75;58.99;100715.53;4994870;28;20387;-75
2022/01/21 08:59:38;;;;;;;6.63;2.30;;;;;;;2.91;58.29;100723.41;4996353;28;20463;-74
2022/01/21 09:02:04;;;;;;;8.70;2.70;;;;;;;2.97;63.63;100722.53;4996203;28;20027;-76
2022/01/21 09:04:29;;;;;;;15.77;3.80;;;;;;;3.09;65.50;100729.66;4989502;28;20575;-76
2022/01/21 09:06:57;;;;;;;7.57;2.42;;;;;;;3.19;66.28;100728.75;4997801;28;20070;-75
2022/01/21 09:09:24;;;;;;;13.80;2.63;;;;;;;2.80;65.82;100717.09;4996306;28;20502;-75
2022/01/21 09:11:59;;;;;;;23.98;3.65;;;;;;;2.55;66.01;100725.75;4997579;28;20037;-75
2022/01/21 09:14:27;;;;;;;19.50;3.20;;;;;;;2.72;66.86;100735.22;4961425;28;20456;-74
2022/01/21 09:16:53;;;;;;;15.13;3.28;;;;;;;3.09;65.52;100728.84;4996169;28;20076;-76
2022/01/21 09:19:18;;;;;;;15.25;3.38;;;;;;;3.38;68.33;100728.13;4996302;28;20114;-76
2022/01/21 09:21:45;;;;;;;9.45;2.92;;;;;;;3.69;65.21;100733.81;4995653;28;20110;-78
2022/01/21 09:24:13;;;;;;;11.57;2.72;;;;;;;3.86;59.37;100729.94;4995398;28;20100;-74
2022/01/21 09:26:39;;;;;;;25.50;3.45;;;;;;;3.92;54.87;100734.69;4996984;28;20022;-77
2022/01/21 09:29:05;;;;;;;36.95;5.82;;;;;;;4.09;53.85;100737.69;4995579;28;20030;-76
2022/01/21 09:31:31;;;;;;;12.13;3.35;;;;;;;4.08;53.37;100733.28;4992495;28;20042;-76
2022/01/21 09:33:58;;;;;;;10.43;3.10;;;;;;;3.91;51.33;100733.09;4996911;28;20402;-75
2022/01/21 09:36:29;;;;;;;6.10;2.13;;;;;;;4.04;52.18;100738.97;4995672;28;20027;-76
2022/01/21 09:38:57;;;;;;;6.38;1.90;;;;;;;3.92;51.19;100731.06;4996529;28;20034;-76
2022/01/21 09:41:25;;;;;;;5.35;2.17;;;;;;;4.03;52.42;100720.47;4981545;28;20034;-77
2022/01/21 09:43:53;;;;;;;8.85;3.08;;;;;;;4.05;51.79;100714.38;4977808;28;20049;-75
2022/01/21 09:46:35;;;;;;;14.48;2.67;;;;;;;4.09;50.20;100726.41;5008527;28;20029;-77
2022/01/21 09:49:09;;;;;;;12.45;3.25;;;;;;;4.06;50.42;100727.25;4976401;28;20038;-77
2022/01/21 09:51:36;;;;;;;25.52;3.88;;;;;;;4.16;52.48;100721.47;5007378;28;20027;-76
2022/01/21 09:54:06;;;;;;;40.72;5.72;;;;;;;4.23;51.23;100712.91;5008343;28;20038;-78
2022/01/21 09:56:34;;;;;;;91.43;8.10;;;;;;;4.25;51.54;100709.66;4958457;28;20019;-78
2022/01/21 09:59:01;;;;;;;39.03;4.07;;;;;;;4.25;49.92;100715.28;5008223;28;20388;-77
2022/01/21 10:01:27;;;;;;;19.60;3.70;;;;;;;4.04;50.07;100710.78;4976197;28;20054;-76
2022/01/21 10:03:52;;;;;;;17.20;3.38;;;;;;;3.99;49.93;100682.28;4975129;28;20413;-77
2022/01/21 10:06:22;;;;;;;40.08;4.75;;;;;;;3.87;51.34;100711.81;4975591;28;20074;-75
2022/01/21 10:08:49;;;;;;;15.48;2.95;;;;;;;3.90;50.59;100699.69;4972705;28;20046;-75
2022/01/21 10:11:14;;;;;;;13.18;3.33;;;;;;;3.85;50.17;100698.16;4973358;28;20027;-75
2022/01/21 10:13:45;;;;;;;12.23;2.85;;;;;;;4.00;50.36;100709.22;4975350;28;20022;-75
2022/01/21 10:16:14;;;;;;;31.45;4.28;;;;;;;4.17;50.13;100694.06;4973297;28;20039;-76
2022/01/21 10:19:08;;;;;;;6.57;2.55;;;;;;;4.21;49.97;100675.88;4976038;28;20030;-75
2022/01/21 10:21:36;;;;;;;40.72;4.32;;;;;;;4.25;48.86;100676.63;4976262;28;20015;-74
2022/01/21 10:24:17;;;;;;;27.35;4.20;;;;;;;4.13;49.85;100691.31;4976167;28;20109;-75
2022/01/21 10:26:51;;;;;;;68.72;8.23;;;;;;;4.14;50.33;100698.56;4975121;28;20472;-78
2022/01/21 10:29:17;;;;;;;47.90;5.63;;;;;;;4.24;51.13;100703.22;4976470;28;20034;-75
2022/01/21 10:32:00;;;;;;;51.45;5.75;;;;;;;4.34;50.21;100709.94;4991327;28;20053;-75
2022/01/21 10:34:29;;;;;;;82.43;6.95;;;;;;;4.51;49.98;100685.47;4976389;28;20026;-74
2022/01/21 10:37:06;;;;;;;64.30;6.70;;;;;;;5.06;49.12;100701.84;4991257;28;20057;-77
2022/01/21 10:39:34;;;;;;;16.30;4.57;;;;;;;5.46;46.74;100688.56;4975538;28;20037;-77
2022/01/21 10:42:01;;;;;;;11.02;2.40;;;;;;;5.48;47.84;100675.56;4975274;28;20415;-76
2022/01/21 10:44:30;;;;;;;11.80;2.58;;;;;;;5.37;46.91;100693.97;4990712;28;20574;-75
2022/01/21 10:47:12;;;;;;;9.70;2.45;;;;;;;5.36;46.81;100681.09;4975902;28;20333;-73
2022/01/21 10:49:42;;;;;;;63.40;7.88;;;;;;;5.32;47.63;100686.81;4975631;28;20423;-74
2022/01/21 10:52:10;;;;;;;10.32;2.60;;;;;;;5.46;47.60;100685.72;4974553;28;20031;-75
2022/01/21 10:54:42;;;;;;;16.27;2.60;;;;;;;5.58;48.01;100693.53;4990908;28;20053;-76
2022/01/21 10:57:16;;;;;;;11.05;2.80;;;;;;;5.63;47.13;100698.66;4972623;28;20109;-73
2022/01/21 10:59:49;;;;;;;11.63;2.28;;;;;;;5.85;46.53;100694.16;4990613;28;20053;-75
2022/01/21 11:02:15;;;;;;;25.42;4.65;;;;;;;5.60;46.82;100696.72;4990198;28;20019;-73
2022/01/21 11:04:41;;;;;;;35.55;4.80;;;;;;;5.31;46.34;100695.72;4958411;28;20031;-73
2022/01/21 11:07:07;;;;;;;61.80;6.47;;;;;;;5.02;47.69;100704.72;4958186;28;20039;-72
2022/01/21 11:09:37;;;;;;;27.90;4.45;;;;;;;4.57;48.13;100661.19;4972960;28;20033;-73
2022/01/21 11:12:17;;;;;;;15.75;4.18;;;;;;;4.28;48.83;100689.88;4974300;28;20030;-72
2022/01/21 11:14:57;;;;;;;19.88;3.50;;;;;;;3.82;49.60;100656.75;4974324;28;20038;-75
2022/01/21 11:17:23;;;;;;;5.75;2.28;;;;;;;3.68;50.35;100653.34;4974864;28;20027;-75
2022/01/21 11:20:15;;;;;;;7.32;2.42;;;;;;;3.67;51.63;100677.09;4973926;28;20027;-76
2022/01/21 11:23:08;;;;;;;18.70;3.60;;;;;;;3.67;51.16;100686.31;4975047;28;20065;-75
2022/01/21 11:25:49;;;;;;;42.30;4.55;;;;;;;3.72;50.24;100679.44;4975682;28;20109;-74
2022/01/21 11:28:45;;;;;;;6.43;2.38;;;;;;;3.68;51.19;100676.66;4975203;28;20114;-75
2022/01/21 11:31:12;;;;;;;8.93;2.75;;;;;;;3.51;51.64;100682.50;4970245;28;20043;-76
2022/01/21 11:33:38;;;;;;;23.52;3.72;;;;;;;3.72;52.15;100677.41;4975497;28;20026;-75
2022/01/21 11:36:05;;;;;;;16.85;4.43;;;;;;;3.78;51.84;100686.19;4975462;28;20391;-75
2022/01/21 11:38:34;;;;;;;13.32;2.75;;;;;;;4.04;52.41;100681.81;4974144;28;20027;-74
2022/01/21 11:41:01;;;;;;;17.42;2.63;;;;;;;4.20;50.86;100674.28;4973824;28;20030;-73
2022/01/21 11:43:30;;;;;;;6.45;3.03;;;;;;;4.37;51.02;100671.63;4974032;28;20058;-76
2022/01/21 11:51:00;;;;;;;11.85;3.95;;;;;;;4.09;51.33;100675.69;5005772;28;20034;-73
2022/01/21 11:53:57;;;;;;;8.48;2.47;;;;;;;3.98;51.19;100673.03;4975435;28;20031;-74
2022/01/21 11:56:32;;;;;;;8.18;2.72;;;;;;;3.87;52.20;100666.75;5006412;28;20030;-76
2022/01/21 11:59:05;;;;;;;10.65;2.40;;;;;;;3.77;52.72;100657.22;4974917;28;20484;-76
2022/01/21 12:01:52;;;;;;;9.23;2.70;;;;;;;3.96;52.23;100657.75;4975105;28;20019;-74
2022/01/21 12:04:30;;;;;;;9.10;2.58;;;;;;;4.15;51.39;100652.22;4977886;28;20041;-75
2022/01/21 12:06:57;;;;;;;10.25;2.67;;;;;;;4.38;53.93;100645.81;4975159;28;20034;-78
2022/01/21 12:09:55;;;;;;;7.13;2.15;;;;;;;4.81;53.01;100654.31;4974672;28;20113;-77
2022/01/21 12:12:23;;;;;;;11.10;2.78;;;;;;;4.97;51.19;100643.13;4954097;29;20082;-79
2022/01/21 12:14:57;;;;;;;9.00;2.47;;;;;;;4.89;50.01;100640.84;4955074;29;20059;-79
2022/01/21 12:17:42;;;;;;;8.07;2.25;;;;;;;4.96;50.27;100638.72;4954441;29;20074;-77
2022/01/21 12:20:11;;;;;;;11.02;2.55;;;;;;;5.10;51.93;100646.09;4955525;28;20023;-76
2022/01/21 12:22:38;;;;;;;10.70;2.55;;;;;;;4.92;50.46;100620.25;4954599;29;20034;-77